sensor_id;sensor_type;location;lat;lon;timestamp;pressure;altitude;pressure_sealevel;temperature;humidity
11001;BME280;5553;48.506;8.870;2023-05-12T00:00:42;96345.34;;;8.42;100.00
11001;BME280;5553;48.506;8.870;2023-05-12T00:03:10;96336.91;;;8.46;100.00
11001;BME280;5553;48.506;8.870;2023-05-12T00:05:38;96337.72;;;8.47;100.00
11001;BME280;5553;48.506;8.870;2023-05-12T00:08:06;96329.84;;;8.47;100.00
11001;BME280;5553;48.506;8.870;2023-05-12T00:10:37;96338.97;;;8.51;100.00
11001;BME280;5553;48.506;8.870;2023-05-12T00:13:06;96338.53;;;8.47;100.00
11001;BME280;5553;48.506;8.870;2023-05-12T00:15:36;96335.19;;;8.53;100.00
11001;BME280;5553;48.506;8.870;2023-05-12T00:18:04;96339.81;;;8.51;100.00
11001;BME280;5553;48.506;8.870;2023-05-12T00:20:32;96332.91;;;8.50;100.00
11001;BME280;5553;48.506;8.870;2023-05-12T00:23:01;96331.75;;;8.38;100.00
11001;BME280;5553;48.506;8.870;2023-05-12T00:25:29;96335.44;;;8.44;100.00
11001;BME280;5553;48.506;8.870;2023-05-12T00:28:00;96342.63;;;8.50;100.00
11001;BME280;5553;48.506;8.870;2023-05-12T00:30:28;96341.81;;;8.49;100.00
11001;BME280;5553;48.506;8.870;2023-05-12T00:32:56;96343.44;;;8.50;100.00
11001;BME280;5553;48.506;8.870;2023-05-12T00:35:25;96341.81;;;8.49;100.00
11001;BME280;5553;48.506;8.870;2023-05-12T00:37:54;96348.97;;;8.56;100.00
11001;BME280;5553;48.506;8.870;2023-05-12T00:40:22;96354.41;;;8.54;100.00
11001;BME280;5553;48.506;8.870;2023-05-12T00:42:50;96352.31;;;8.49;100.00
11001;BME280;5553;48.506;8.870;2023-05-12T00:45:21;96351.41;;;8.42;100.00
11001;BME280;5553;48.506;8.870;2023-05-12T00:47:50;96352.59;;;8.40;100.00
11001;BME280;5553;48.506;8.870;2023-05-12T00:50:19;96355.06;;;8.41;100.00
11001;BME280;5553;48.506;8.870;2023-05-12T00:52:48;96352.69;;;8.46;100.00
11001;BME280;5553;48.506;8.870;2023-05-12T00:55:16;96346.16;;;8.42;100.00
11001;BME280;5553;48.506;8.870;2023-05-12T00:57:45;96351.41;;;8.42;100.00
11001;BME280;5553;48.506;8.870;2023-05-12T01:00:13;96345.34;;;8.42;100.00
11001;BME280;5553;48.506;8.870;2023-05-12T01:02:45;96345.53;;;8.40;100.00
11001;BME280;5553;48.506;8.870;2023-05-12T01:05:13;96348.16;;;8.40;100.00
11001;BME280;5553;48.506;8.870;2023-05-12T01:07:43;96342.28;;;8.38;100.00
11001;BME280;5553;48.506;8.870;2023-05-12T01:10:17;96342.00;;;8.48;100.00
11001;BME280;5553;48.506;8.870;2023-05-12T01:12:46;96345.97;;;8.44;100.00
11001;BME280;5553;48.506;8.870;2023-05-12T01:15:14;96341.47;;;8.38;100.00
11001;BME280;5553;48.506;8.870;2023-05-12T01:17:51;96348.47;;;8.37;100.00
11001;BME280;5553;48.506;8.870;2023-05-12T01:20:21;96355.69;;;8.43;100.00
11001;BME280;5553;48.506;8.870;2023-05-12T01:22:51;96356.31;;;8.45;100.00
11001;BME280;5553;48.506;8.870;2023-05-12T01:25:22;96345.16;;;8.43;100.00
11001;BME280;5553;48.506;8.870;2023-05-12T01:27:53;96347.78;;;8.43;100.00
11001;BME280;5553;48.506;8.870;2023-05-12T01:30:23;96343.53;;;8.42;100.00
11001;BME280;5553;48.506;8.870;2023-05-12T01:32:51;96343.53;;;8.42;100.00
11001;BME280;5553;48.506;8.870;2023-05-12T01:35:20;96342.28;;;8.38;100.00
11001;BME280;5553;48.506;8.870;2023-05-12T01:37:48;96347.19;;;8.41;100.00
11001;BME280;5553;48.506;8.870;2023-05-12T01:40:16;96339.66;;;8.38;100.00
11001;BME280;5553;48.506;8.870;2023-05-12T01:42:45;96339.66;;;8.38;100.00
11001;BME280;5553;48.506;8.870;2023-05-12T01:45:15;96337.81;;;8.39;100.00
11001;BME280;5553;48.506;8.870;2023-05-12T01:47:44;96346.16;;;8.42;100.00
11001;BME280;5553;48.506;8.870;2023-05-12T01:50:12;96344.72;;;8.40;100.00
11001;BME280;5553;48.506;8.870;2023-05-12T01:52:40;96343.34;;;8.44;100.00
11001;BME280;5553;48.506;8.870;2023-05-12T01:55:10;96348.88;;;8.49;100.00
11001;BME280;5553;48.506;8.870;2023-05-12T01:57:38;96355.03;;;8.56;100.00
11001;BME280;5553;48.506;8.870;2023-05-12T02:00:07;96354.59;;;8.52;100.00
11001;BME280;5553;48.506;8.870;2023-05-12T02:02:39;96354.59;;;8.52;100.00
11001;BME280;5553;48.506;8.870;2023-05-12T02:05:08;96353.41;;;8.55;100.00
11001;BME280;5553;48.506;8.870;2023-05-12T02:07:36;96360.75;;;8.60;100.00
11001;BME280;5553;48.506;8.870;2023-05-12T02:10:06;96356.50;;;8.59;100.00
11001;BME280;5553;48.506;8.870;2023-05-12T02:12:35;96362.38;;;8.61;100.00
11001;BME280;5553;48.506;8.870;2023-05-12T02:15:04;96357.94;;;8.61;100.00
11001;BME280;5553;48.506;8.870;2023-05-12T02:17:32;96353.31;;;8.63;100.00
11001;BME280;5553;48.506;8.870;2023-05-12T02:20:04;96358.78;;;8.62;100.00
11001;BME280;5553;48.506;8.870;2023-05-12T02:22:33;96358.13;;;8.60;100.00
11001;BME280;5553;48.506;8.870;2023-05-12T02:25:01;96358.13;;;8.60;100.00
11001;BME280;5553;48.506;8.870;2023-05-12T02:27:29;96352.88;;;8.60;100.00
11001;BME280;5553;48.506;8.870;2023-05-12T02:29:58;96355.22;;;8.54;100.00
11001;BME280;5553;48.506;8.870;2023-05-12T02:32:26;96351.50;;;8.49;100.00
11001;BME280;5553;48.506;8.870;2023-05-12T02:34:55;96349.50;;;8.51;100.00
11001;BME280;5553;48.506;8.870;2023-05-12T02:37:26;96353.59;;;8.53;100.00
11001;BME280;5553;48.506;8.870;2023-05-12T02:39:54;96357.59;;;8.49;100.00
11001;BME280;5553;48.506;8.870;2023-05-12T02:42:22;96355.59;;;8.51;100.00
11001;BME280;5553;48.506;8.870;2023-05-12T02:44:53;96359.22;;;8.50;100.00
11001;BME280;5553;48.506;8.870;2023-05-12T02:47:21;96344.69;;;8.54;100.00
11001;BME280;5553;48.506;8.870;2023-05-12T02:49:49;96348.34;;;8.53;100.00
11001;BME280;5553;48.506;8.870;2023-05-12T02:52:19;96346.53;;;8.39;100.00
11001;BME280;5553;48.506;8.870;2023-05-12T02:54:50;96353.13;;;8.35;100.00
11001;BME280;5553;48.506;8.870;2023-05-12T02:57:20;96360.56;;;8.31;100.00
11001;BME280;5553;48.506;8.870;2023-05-12T02:59:50;96355.06;;;8.41;100.00
11001;BME280;5553;48.506;8.870;2023-05-12T03:02:18;96363.75;;;8.42;100.00
11001;BME280;5553;48.506;8.870;2023-05-12T03:04:46;96370.94;;;8.48;100.00
11001;BME280;5553;48.506;8.870;2023-05-12T03:07:15;96372.50;;;8.34;100.00
11001;BME280;5553;48.506;8.870;2023-05-12T03:09:43;96374.66;;;8.30;100.00
11001;BME280;5553;48.506;8.870;2023-05-12T03:12:14;96375.06;;;8.27;100.00
11001;BME280;5553;48.506;8.870;2023-05-12T03:14:42;96368.78;;;8.14;100.00
11001;BME280;5553;48.506;8.870;2023-05-12T03:17:10;96373.59;;;8.25;100.00
11001;BME280;5553;48.506;8.870;2023-05-12T03:19:39;96379.47;;;8.27;100.00
11001;BME280;5553;48.506;8.870;2023-05-12T03:22:07;96379.94;;;8.30;100.00
11001;BME280;5553;48.506;8.870;2023-05-12T03:24:36;96380.22;;;8.21;100.00
11001;BME280;5553;48.506;8.870;2023-05-12T03:27:04;96379.13;;;8.30;100.00
11001;BME280;5553;48.506;8.870;2023-05-12T03:29:35;96380.31;;;8.27;100.00
11001;BME280;5553;48.506;8.870;2023-05-12T03:32:04;96378.19;;;8.23;100.00
11001;BME280;5553;48.506;8.870;2023-05-12T03:34:33;96378.19;;;8.23;100.00
11001;BME280;5553;48.506;8.870;2023-05-12T03:37:01;96376.94;;;8.19;100.00
11001;BME280;5553;48.506;8.870;2023-05-12T03:39:29;96385.13;;;8.24;100.00
11001;BME280;5553;48.506;8.870;2023-05-12T03:41:58;96387.81;;;8.30;100.00
11001;BME280;5553;48.506;8.870;2023-05-12T03:44:27;96374.50;;;8.32;100.00
11001;BME280;5553;48.506;8.870;2023-05-12T03:46:58;96374.22;;;8.27;100.00
11001;BME280;5553;48.506;8.870;2023-05-12T03:49:26;96372.22;;;8.29;100.00
11001;BME280;5553;48.506;8.870;2023-05-12T03:51:54;96375.13;;;8.34;100.00
11001;BME280;5553;48.506;8.870;2023-05-12T03:54:22;96369.06;;;8.34;100.00
11001;BME280;5553;48.506;8.870;2023-05-12T03:56:51;96378.75;;;8.33;100.00
11001;BME280;5553;48.506;8.870;2023-05-12T03:59:19;96375.44;;;8.39;100.00
11001;BME280;5553;48.506;8.870;2023-05-12T04:01:48;96380.38;;;8.34;100.00
11001;BME280;5553;48.506;8.870;2023-05-12T04:04:19;96384.72;;;8.27;100.00
11001;BME280;5553;48.506;8.870;2023-05-12T04:06:47;96376.59;;;8.22;100.00
11001;BME280;5553;48.506;8.870;2023-05-12T04:09:15;96374.22;;;8.27;100.00
11001;BME280;5553;48.506;8.870;2023-05-12T04:11:45;96376.03;;;8.26;100.00
11001;BME280;5553;48.506;8.870;2023-05-12T04:14:13;96371.97;;;8.24;100.00
11001;BME280;5553;48.506;8.870;2023-05-12T04:16:42;96370.59;;;8.28;100.00
11001;BME280;5553;48.506;8.870;2023-05-12T04:19:10;96373.13;;;8.21;100.00
11001;BME280;5553;48.506;8.870;2023-05-12T04:21:41;96368.34;;;8.25;100.00
11001;BME280;5553;48.506;8.870;2023-05-12T04:24:10;96365.53;;;8.26;100.00
11001;BME280;5553;48.506;8.870;2023-05-12T04:26:38;96372.44;;;8.27;100.00
11001;BME280;5553;48.506;8.870;2023-05-12T04:29:06;96375.50;;;8.31;100.00
11001;BME280;5553;48.506;8.870;2023-05-12T04:31:35;96378.59;;;8.35;100.00
11001;BME280;5553;48.506;8.870;2023-05-12T04:34:03;96377.34;;;8.45;100.00
11001;BME280;5553;48.506;8.870;2023-05-12T04:36:31;96380.03;;;8.37;100.00
11001;BME280;5553;48.506;8.870;2023-05-12T04:39:02;96370.50;;;8.36;100.00
11001;BME280;5553;48.506;8.870;2023-05-12T04:41:30;96372.47;;;8.42;100.00
11001;BME280;5553;48.506;8.870;2023-05-12T04:44:00;96368.00;;;8.43;100.00
11001;BME280;5553;48.506;8.870;2023-05-12T04:46:28;96365.84;;;8.46;100.00
11001;BME280;5553;48.506;8.870;2023-05-12T04:48:57;96368.09;;;8.49;100.00
11001;BME280;5553;48.506;8.870;2023-05-12T04:51:25;96367.47;;;8.47;100.00
11001;BME280;5553;48.506;8.870;2023-05-12T04:53:53;96373.34;;;8.49;100.00
11001;BME280;5553;48.506;8.870;2023-05-12T04:56:24;96375.63;;;8.38;100.00
11001;BME280;5553;48.506;8.870;2023-05-12T04:58:52;96371.75;;;8.48;100.00
11001;BME280;5553;48.506;8.870;2023-05-12T05:01:20;96377.81;;;8.49;100.00
11001;BME280;5553;48.506;8.870;2023-05-12T05:03:49;96380.44;;;8.49;100.00
11001;BME280;5553;48.506;8.870;2023-05-12T05:06:17;96379.44;;;8.50;100.00
11001;BME280;5553;48.506;8.870;2023-05-12T05:08:45;96375.44;;;8.54;100.00
11001;BME280;5553;48.506;8.870;2023-05-12T05:11:13;96383.63;;;8.59;100.00
11001;BME280;5553;48.506;8.870;2023-05-12T05:13:44;96383.25;;;8.62;100.00
11001;BME280;5553;48.506;8.870;2023-05-12T05:16:12;96376.34;;;8.61;100.00
11001;BME280;5553;48.506;8.870;2023-05-12T05:18:41;96381.31;;;8.71;100.00
11001;BME280;5553;48.506;8.870;2023-05-12T05:21:10;96383.97;;;8.71;100.00
11001;BME280;5553;48.506;8.870;2023-05-12T05:23:39;96381.59;;;8.76;100.00
11001;BME280;5553;48.506;8.870;2023-05-12T05:26:08;96379.34;;;8.73;100.00
11001;BME280;5553;48.506;8.870;2023-05-12T05:28:36;96375.69;;;8.74;100.00
11001;BME280;5553;48.506;8.870;2023-05-12T05:31:07;96377.84;;;8.85;100.00
11001;BME280;5553;48.506;8.870;2023-05-12T05:33:40;96367.16;;;8.87;100.00
11001;BME280;5553;48.506;8.870;2023-05-12T05:36:08;96367.25;;;8.93;100.00
11001;BME280;5553;48.506;8.870;2023-05-12T05:38:37;96363.25;;;8.97;100.00
11001;BME280;5553;48.506;8.870;2023-05-12T05:41:05;96358.25;;;9.02;100.00
11001;BME280;5553;48.506;8.870;2023-05-12T05:43:34;96357.97;;;8.97;100.00
11001;BME280;5553;48.506;8.870;2023-05-12T05:46:02;96353.88;;;9.10;100.00
11001;BME280;5553;48.506;8.870;2023-05-12T05:48:33;96348.09;;;8.99;100.00
11001;BME280;5553;48.506;8.870;2023-05-12T05:51:03;96344.97;;;9.11;100.00
11001;BME280;5553;48.506;8.870;2023-05-12T05:53:31;96355.66;;;9.24;100.00
11001;BME280;5553;48.506;8.870;2023-05-12T05:56:00;96351.88;;;9.33;100.00
11001;BME280;5553;48.506;8.870;2023-05-12T05:58:28;96351.06;;;9.11;100.00
11001;BME280;5553;48.506;8.870;2023-05-12T06:00:56;96341.84;;;9.22;100.00
11001;BME280;5553;48.506;8.870;2023-05-12T06:03:24;96341.34;;;9.33;100.00
11001;BME280;5553;48.506;8.870;2023-05-12T06:05:55;96335.97;;;9.41;100.00
11001;BME280;5553;48.506;8.870;2023-05-12T06:08:24;96336.66;;;9.50;100.00
11001;BME280;5553;48.506;8.870;2023-05-12T06:10:52;96334.84;;;9.51;100.00
11001;BME280;5553;48.506;8.870;2023-05-12T06:13:20;96337.19;;;9.67;100.00
11001;BME280;5553;48.506;8.870;2023-05-12T06:15:48;96336.59;;;9.65;100.00
11001;BME280;5553;48.506;8.870;2023-05-12T06:18:17;96332.94;;;9.66;100.00
11001;BME280;5553;48.506;8.870;2023-05-12T06:20:45;96328.97;;;9.77;100.00
11001;BME280;5553;48.506;8.870;2023-05-12T06:23:16;96335.69;;;9.79;100.00
11001;BME280;5553;48.506;8.870;2023-05-12T06:25:47;96321.34;;;9.82;100.00
11001;BME280;5553;48.506;8.870;2023-05-12T06:28:15;96313.72;;;9.93;100.00
11001;BME280;5553;48.506;8.870;2023-05-12T06:30:43;96308.66;;;9.92;100.00
11001;BME280;5553;48.506;8.870;2023-05-12T06:33:12;96306.53;;;10.09;100.00
11001;BME280;5553;48.506;8.870;2023-05-12T06:35:40;96307.59;;;10.21;100.00
11001;BME280;5553;48.506;8.870;2023-05-12T06:38:08;96304.44;;;10.04;100.00
11001;BME280;5553;48.506;8.870;2023-05-12T06:40:39;96296.78;;;10.09;100.00
11001;BME280;5553;48.506;8.870;2023-05-12T06:43:07;96292.88;;;10.27;100.00
11001;BME280;5553;48.506;8.870;2023-05-12T06:45:36;96291.25;;;10.32;100.00
11001;BME280;5553;48.506;8.870;2023-05-12T06:48:05;96278.75;;;10.41;100.00
11001;BME280;5553;48.506;8.870;2023-05-12T06:50:33;96273.72;;;10.18;100.00
11001;BME280;5553;48.506;8.870;2023-05-12T06:53:02;96275.75;;;10.51;100.00
11001;BME280;5553;48.506;8.870;2023-05-12T06:55:32;96270.50;;;10.57;100.00
11001;BME280;5553;48.506;8.870;2023-05-12T06:58:03;96273.63;;;10.74;100.00
11001;BME280;5553;48.506;8.870;2023-05-12T07:00:31;96257.69;;;10.48;100.00
11001;BME280;5553;48.506;8.870;2023-05-12T07:02:59;96256.59;;;10.97;100.00
11001;BME280;5553;48.506;8.870;2023-05-12T07:05:28;96255.00;;;11.02;100.00
11001;BME280;5553;48.506;8.870;2023-05-12T07:07:56;96254.66;;;11.25;100.00
11001;BME280;5553;48.506;8.870;2023-05-12T07:10:24;96243.66;;;11.15;100.00
11001;BME280;5553;48.506;8.870;2023-05-12T07:12:52;96245.09;;;11.37;100.00
11001;BME280;5553;48.506;8.870;2023-05-12T07:15:23;96237.56;;;11.61;100.00
11001;BME280;5553;48.506;8.870;2023-05-12T07:17:52;96236.75;;;11.60;100.00
11001;BME280;5553;48.506;8.870;2023-05-12T07:20:20;96228.03;;;11.53;100.00
11001;BME280;5553;48.506;8.870;2023-05-12T07:22:48;96233.09;;;11.55;100.00
11001;BME280;5553;48.506;8.870;2023-05-12T07:25:19;96226.59;;;11.71;100.00
11001;BME280;5553;48.506;8.870;2023-05-12T07:27:47;96222.94;;;11.92;100.00
11001;BME280;5553;48.506;8.870;2023-05-12T07:30:16;96220.28;;;11.45;100.00
11001;BME280;5553;48.506;8.870;2023-05-12T07:32:47;96225.38;;;11.60;100.00
11001;BME280;5553;48.506;8.870;2023-05-12T07:35:15;96213.22;;;11.46;100.00
11001;BME280;5553;48.506;8.870;2023-05-12T07:37:43;96214.41;;;11.63;100.00
11001;BME280;5553;48.506;8.870;2023-05-12T07:40:12;96220.47;;;11.83;100.00
11001;BME280;5553;48.506;8.870;2023-05-12T07:42:40;96216.16;;;12.09;100.00
11001;BME280;5553;48.506;8.870;2023-05-12T07:45:09;96215.09;;;12.23;100.00
11001;BME280;5553;48.506;8.870;2023-05-12T07:47:37;96197.69;;;11.96;100.00
11001;BME280;5553;48.506;8.870;2023-05-12T07:50:08;96201.28;;;12.28;100.00
11001;BME280;5553;48.506;8.870;2023-05-12T07:52:45;96198.44;;;12.16;100.00
11001;BME280;5553;48.506;8.870;2023-05-12T07:55:13;96208.09;;;12.49;100.00
11001;BME280;5553;48.506;8.870;2023-05-12T07:57:41;96203.28;;;12.32;100.00
11001;BME280;5553;48.506;8.870;2023-05-12T08:00:11;96207.50;;;12.47;100.00
11001;BME280;5553;48.506;8.870;2023-05-12T08:02:40;96209.34;;;12.46;100.00
11001;BME280;5553;48.506;8.870;2023-05-12T08:05:11;96204.97;;;12.65;100.00
11001;BME280;5553;48.506;8.870;2023-05-12T08:07:40;96206.94;;;12.76;100.00
11001;BME280;5553;48.506;8.870;2023-05-12T08:10:09;96204.50;;;13.13;100.00
11001;BME280;5553;48.506;8.870;2023-05-12T08:12:38;96196.59;;;13.07;100.00
11001;BME280;5553;48.506;8.870;2023-05-12T08:15:08;96185.44;;;12.98;100.00
11001;BME280;5553;48.506;8.870;2023-05-12T08:17:36;96198.84;;;13.03;100.00
11001;BME280;5553;48.506;8.870;2023-05-12T08:20:06;96196.09;;;12.85;100.00
11001;BME280;5553;48.506;8.870;2023-05-12T08:22:37;96206.88;;;13.21;100.00
11001;BME280;5553;48.506;8.870;2023-05-12T08:25:08;96197.47;;;12.94;100.00
11001;BME280;5553;48.506;8.870;2023-05-12T08:27:36;96197.63;;;12.99;100.00
11001;BME280;5553;48.506;8.870;2023-05-12T08:30:05;96202.13;;;12.98;100.00
11001;BME280;5553;48.506;8.870;2023-05-12T08:32:34;96201.59;;;13.15;100.00
11001;BME280;5553;48.506;8.870;2023-05-12T08:35:03;96189.75;;;13.24;100.00
11001;BME280;5553;48.506;8.870;2023-05-12T08:37:32;96190.25;;;14.01;100.00
11001;BME280;5553;48.506;8.870;2023-05-12T08:40:13;96195.88;;;14.30;100.00
11001;BME280;5553;48.506;8.870;2023-05-12T08:42:43;96195.72;;;14.25;100.00
11001;BME280;5553;48.506;8.870;2023-05-12T08:45:14;96187.41;;;14.39;100.00
11001;BME280;5553;48.506;8.870;2023-05-12T08:47:43;96176.94;;;14.26;100.00
11001;BME280;5553;48.506;8.870;2023-05-12T08:50:13;96183.63;;;14.29;100.00
11001;BME280;5553;48.506;8.870;2023-05-12T08:52:43;96172.00;;;14.30;100.00
11001;BME280;5553;48.506;8.870;2023-05-12T08:55:14;96175.84;;;14.15;100.00
11001;BME280;5553;48.506;8.870;2023-05-12T08:57:44;96174.28;;;14.08;100.00
11001;BME280;5553;48.506;8.870;2023-05-12T09:00:13;96177.06;;;13.94;100.00
11001;BME280;5553;48.506;8.870;2023-05-12T09:02:42;96179.06;;;14.17;100.00
11001;BME280;5553;48.506;8.870;2023-05-12T09:05:11;96179.34;;;14.64;100.00
11001;BME280;5553;48.506;8.870;2023-05-12T09:07:41;96166.53;;;14.43;100.00
11001;BME280;5553;48.506;8.870;2023-05-12T09:10:16;96168.81;;;-97.38;100.00
11001;BME280;5553;48.506;8.870;2023-05-12T09:12:46;96175.44;;;14.49;100.00
11001;BME280;5553;48.506;8.870;2023-05-12T09:15:19;96166.25;;;14.14;100.00
11001;BME280;5553;48.506;8.870;2023-05-12T09:17:50;96172.09;;;14.23;100.00
11001;BME280;5553;48.506;8.870;2023-05-12T09:20:18;96179.97;;;14.30;100.00
11001;BME280;5553;48.506;8.870;2023-05-12T09:22:46;96173.63;;;14.12;100.00
11001;BME280;5553;48.506;8.870;2023-05-12T09:25:19;96171.56;;;13.96;100.00
11001;BME280;5553;48.506;8.870;2023-05-12T09:27:52;96170.25;;;14.05;100.00
11001;BME280;5553;48.506;8.870;2023-05-12T09:30:28;96177.59;;;14.21;100.00
11001;BME280;5553;48.506;8.870;2023-05-12T09:33:06;96167.44;;;14.37;100.00
11001;BME280;5553;48.506;8.870;2023-05-12T09:35:38;96169.19;;;14.25;100.00
11001;BME280;5553;48.506;8.870;2023-05-12T09:38:08;96155.91;;;14.43;100.00
11001;BME280;5553;48.506;8.870;2023-05-12T09:40:39;96163.81;;;14.50;100.00
11001;BME280;5553;48.506;8.870;2023-05-12T09:43:07;96143.56;;;14.49;100.00
11001;BME280;5553;48.506;8.870;2023-05-12T09:45:36;96152.09;;;14.57;100.00
11001;BME280;5553;48.506;8.870;2023-05-12T09:48:07;96140.09;;;14.36;100.00
11001;BME280;5553;48.506;8.870;2023-05-12T09:50:44;96153.56;;;14.35;100.00
11001;BME280;5553;48.506;8.870;2023-05-12T09:53:13;96175.09;;;14.08;100.00
11001;BME280;5553;48.506;8.870;2023-05-12T09:55:45;96186.81;;;14.37;100.00
11001;BME280;5553;48.506;8.870;2023-05-12T09:58:14;96185.88;;;14.50;100.00
11001;BME280;5553;48.506;8.870;2023-05-12T10:00:43;96178.75;;;14.44;100.00
11001;BME280;5553;48.506;8.870;2023-05-12T10:03:13;96179.72;;;14.68;100.00
11001;BME280;5553;48.506;8.870;2023-05-12T10:05:47;96179.72;;;14.68;100.00
11001;BME280;5553;48.506;8.870;2023-05-12T10:08:21;96168.94;;;14.93;100.00
11001;BME280;5553;48.506;8.870;2023-05-12T10:10:55;96167.50;;;15.21;100.00
11001;BME280;5553;48.506;8.870;2023-05-12T10:13:25;96170.41;;;15.31;100.00
11001;BME280;5553;48.506;8.870;2023-05-12T10:15:55;96161.78;;;15.71;100.00
11001;BME280;5553;48.506;8.870;2023-05-12T10:18:23;96153.56;;;15.60;100.00
11001;BME280;5553;48.506;8.870;2023-05-12T10:20:52;96146.03;;;15.57;100.00
11001;BME280;5553;48.506;8.870;2023-05-12T10:23:21;96146.97;;;15.75;100.00
11001;BME280;5553;48.506;8.870;2023-05-12T10:25:53;96130.75;;;15.41;100.00
11001;BME280;5553;48.506;8.870;2023-05-12T10:28:26;96129.16;;;15.63;100.00
11001;BME280;5553;48.506;8.870;2023-05-12T10:30:55;96126.38;;;15.47;100.00
11001;BME280;5553;48.506;8.870;2023-05-12T10:33:24;96145.09;;;15.52;100.00
11001;BME280;5553;48.506;8.870;2023-05-12T10:35:52;96155.75;;;15.75;100.00
11001;BME280;5553;48.506;8.870;2023-05-12T10:38:21;96147.34;;;15.67;100.00
11001;BME280;5553;48.506;8.870;2023-05-12T10:40:58;96152.25;;;15.28;100.00
11001;BME280;5553;48.506;8.870;2023-05-12T10:43:28;96123.03;;;15.39;100.00
11001;BME280;5553;48.506;8.870;2023-05-12T10:46:08;96102.31;;;15.65;100.00
11001;BME280;5553;48.506;8.870;2023-05-12T10:48:50;96119.81;;;15.84;100.00
11001;BME280;5553;48.506;8.870;2023-05-12T10:51:19;96113.22;;;16.27;100.00
11001;BME280;5553;48.506;8.870;2023-05-12T10:53:52;96117.13;;;16.37;100.00
11001;BME280;5553;48.506;8.870;2023-05-12T10:56:27;96094.44;;;16.63;100.00
11001;BME280;5553;48.506;8.870;2023-05-12T10:59:06;96099.84;;;17.13;98.98
11001;BME280;5553;48.506;8.870;2023-05-12T11:01:35;96093.47;;;17.31;96.71
11001;BME280;5553;48.506;8.870;2023-05-12T11:04:14;96075.72;;;16.29;96.88
11001;BME280;5553;48.506;8.870;2023-05-12T11:06:43;96138.59;;;17.88;100.00
11001;BME280;5553;48.506;8.870;2023-05-12T11:09:13;96087.53;;;17.46;96.94
11001;BME280;5553;48.506;8.870;2023-05-12T11:11:47;96090.03;;;16.85;96.93
11001;BME280;5553;48.506;8.870;2023-05-12T11:14:17;96120.34;;;16.96;100.00
11001;BME280;5553;48.506;8.870;2023-05-12T11:16:45;96098.66;;;16.47;99.33
11001;BME280;5553;48.506;8.870;2023-05-12T11:19:13;96128.47;;;16.61;100.00
11001;BME280;5553;48.506;8.870;2023-05-12T11:21:42;96116.81;;;15.81;100.00
11001;BME280;5553;48.506;8.870;2023-05-12T11:24:10;96111.22;;;15.94;100.00
11001;BME280;5553;48.506;8.870;2023-05-12T11:26:39;96113.41;;;15.97;100.00
11001;BME280;5553;48.506;8.870;2023-05-12T11:29:10;96124.75;;;16.33;100.00
11001;BME280;5553;48.506;8.870;2023-05-12T11:31:38;96122.81;;;16.57;100.00
11001;BME280;5553;48.506;8.870;2023-05-12T11:34:07;96121.75;;;16.41;100.00
11001;BME280;5553;48.506;8.870;2023-05-12T11:36:36;96116.22;;;16.59;99.27
11001;BME280;5553;48.506;8.870;2023-05-12T11:39:05;96115.16;;;16.32;99.68
11001;BME280;5553;48.506;8.870;2023-05-12T11:41:33;96124.47;;;16.18;100.00
11001;BME280;5553;48.506;8.870;2023-05-12T11:44:14;96148.78;;;16.09;100.00
11001;BME280;5553;48.506;8.870;2023-05-12T11:46:53;96133.91;;;15.97;100.00
11001;BME280;5553;48.506;8.870;2023-05-12T11:49:22;96138.44;;;15.73;100.00
11001;BME280;5553;48.506;8.870;2023-05-12T11:51:51;96141.50;;;15.34;100.00
11001;BME280;5553;48.506;8.870;2023-05-12T11:54:20;96139.16;;;15.03;100.00
11001;BME280;5553;48.506;8.870;2023-05-12T11:56:50;96155.28;;;14.89;100.00
11001;BME280;5553;48.506;8.870;2023-05-12T11:59:28;96163.69;;;14.75;100.00
11001;BME280;5553;48.506;8.870;2023-05-12T12:01:58;96161.22;;;14.43;100.00
11001;BME280;5553;48.506;8.870;2023-05-12T12:04:31;96175.38;;;14.18;100.00
11001;BME280;5553;48.506;8.870;2023-05-12T12:06:59;96197.47;;;13.94;100.00
11001;BME280;5553;48.506;8.870;2023-05-12T12:09:32;96232.44;;;13.41;100.00
11001;BME280;5553;48.506;8.870;2023-05-12T12:12:02;96242.56;;;13.12;100.00
11001;BME280;5553;48.506;8.870;2023-05-12T12:14:35;96247.63;;;13.27;100.00
11001;BME280;5553;48.506;8.870;2023-05-12T12:17:05;96255.31;;;12.97;100.00
11001;BME280;5553;48.506;8.870;2023-05-12T12:19:33;96261.25;;;12.92;100.00
11001;BME280;5553;48.506;8.870;2023-05-12T12:22:02;96266.22;;;12.75;100.00
11001;BME280;5553;48.506;8.870;2023-05-12T12:24:30;96263.78;;;12.67;100.00
11001;BME280;5553;48.506;8.870;2023-05-12T12:26:58;96270.47;;;13.15;100.00
11001;BME280;5553;48.506;8.870;2023-05-12T12:29:27;96260.00;;;12.95;100.00
11001;BME280;5553;48.506;8.870;2023-05-12T12:31:57;96264.03;;;13.04;100.00
11001;BME280;5553;48.506;8.870;2023-05-12T12:34:26;96259.91;;;13.08;100.00
11001;BME280;5553;48.506;8.870;2023-05-12T12:36:54;96265.00;;;13.48;100.00
11001;BME280;5553;48.506;8.870;2023-05-12T12:39:22;96266.28;;;13.64;100.00
11001;BME280;5553;48.506;8.870;2023-05-12T12:41:51;96256.84;;;13.74;100.00
11001;BME280;5553;48.506;8.870;2023-05-12T12:44:20;96257.72;;;13.87;100.00
11001;BME280;5553;48.506;8.870;2023-05-12T12:46:48;96249.31;;;13.71;100.00
11001;BME280;5553;48.506;8.870;2023-05-12T12:49:19;96268.16;;;14.07;100.00
11001;BME280;5553;48.506;8.870;2023-05-12T12:51:47;96259.38;;;13.63;100.00
11001;BME280;5553;48.506;8.870;2023-05-12T12:54:16;96258.41;;;13.82;100.00
11001;BME280;5553;48.506;8.870;2023-05-12T12:56:44;96258.78;;;13.61;100.00
11001;BME280;5553;48.506;8.870;2023-05-12T12:59:12;96257.66;;;13.43;100.00
11001;BME280;5553;48.506;8.870;2023-05-12T13:01:40;96275.41;;;13.43;100.00
11001;BME280;5553;48.506;8.870;2023-05-12T13:04:09;96263.72;;;13.25;100.00
11001;BME280;5553;48.506;8.870;2023-05-12T13:06:40;96276.09;;;13.32;100.00
11001;BME280;5553;48.506;8.870;2023-05-12T13:09:08;96283.09;;;13.13;100.00
11001;BME280;5553;48.506;8.870;2023-05-12T13:11:36;96275.19;;;12.68;100.00
11001;BME280;5553;48.506;8.870;2023-05-12T13:14:05;96289.44;;;12.73;100.00
11001;BME280;5553;48.506;8.870;2023-05-12T13:16:33;96286.41;;;12.63;100.00